createdAt,value
2022-10-04T00:00:50.388Z,13.18
2022-10-04T00:05:58.571Z,13.20
2022-10-04T00:11:07.379Z,13.15
2022-10-04T00:16:21.258Z,13.10
2022-10-04T00:21:24.727Z,13.19
2022-10-04T00:27:09.508Z,13.14
2022-10-04T00:32:27.042Z,13.11
2022-10-04T00:37:56.049Z,13.14
2022-10-04T00:43:00.436Z,13.14
2022-10-04T00:48:18.320Z,13.13
2022-10-04T00:53:40.494Z,13.15
2022-10-04T00:59:03.141Z,13.05
2022-10-04T01:04:14.140Z,13.07
2022-10-04T01:09:18.241Z,13.05
2022-10-04T01:14:29.337Z,13.05
2022-10-04T01:19:32.399Z,13.00
2022-10-04T01:24:37.007Z,12.99
2022-10-04T01:29:38.998Z,12.93
2022-10-04T01:34:41.245Z,12.89
2022-10-04T01:39:45.615Z,12.86
2022-10-04T01:44:53.196Z,12.83
2022-10-04T01:49:57.873Z,12.75
2022-10-04T01:55:05.478Z,12.68
2022-10-04T02:00:09.698Z,12.69
2022-10-04T02:05:14.081Z,12.64
2022-10-04T02:10:21.515Z,12.70
2022-10-04T02:15:26.022Z,12.52
2022-10-04T02:20:28.060Z,12.69
2022-10-04T02:25:31.742Z,12.70
2022-10-04T02:30:36.602Z,12.64
2022-10-04T02:35:45.569Z,12.63
2022-10-04T02:40:56.585Z,12.62
2022-10-04T02:46:06.039Z,12.59
2022-10-04T02:51:21.870Z,12.52
2022-10-04T02:56:25.688Z,12.56
2022-10-04T03:01:36.936Z,12.52
2022-10-04T03:06:39.372Z,12.42
2022-10-04T03:11:43.598Z,12.39
2022-10-04T03:16:47.811Z,12.41
2022-10-04T03:21:52.374Z,12.38
2022-10-04T03:26:57.646Z,12.26
2022-10-04T03:32:03.184Z,12.25
2022-10-04T03:37:09.977Z,12.24
2022-10-04T03:42:15.989Z,12.18
2022-10-04T03:47:22.274Z,12.08
2022-10-04T03:52:27.347Z,12.05
2022-10-04T03:57:31.569Z,12.11
2022-10-04T04:02:45.711Z,12.02
2022-10-04T04:07:58.299Z,12.10
2022-10-04T04:13:06.842Z,12.09
2022-10-04T04:18:19.433Z,12.04
2022-10-04T04:23:25.634Z,12.06
2022-10-04T04:28:34.165Z,12.04
2022-10-04T04:33:44.421Z,12.04
2022-10-04T04:38:46.413Z,11.81
2022-10-04T04:43:50.732Z,11.86
2022-10-04T04:48:58.732Z,11.79
2022-10-04T04:54:04.760Z,11.83
2022-10-04T04:59:08.535Z,11.90
2022-10-04T05:04:18.779Z,11.85
2022-10-04T05:09:25.459Z,12.01
2022-10-04T05:14:29.128Z,12.02
2022-10-04T05:19:34.060Z,12.05
2022-10-04T05:24:39.754Z,12.12
2022-10-04T05:30:02.983Z,12.10
2022-10-04T05:35:16.080Z,12.25
2022-10-04T05:40:32.786Z,12.27
2022-10-04T05:45:36.274Z,12.32
2022-10-04T05:50:40.232Z,12.45
2022-10-04T05:55:54.301Z,12.44
2022-10-04T06:01:13.470Z,12.55
2022-10-04T06:06:22.735Z,12.48
2022-10-04T06:11:37.268Z,12.59
2022-10-04T06:16:59.878Z,12.59
2022-10-04T06:22:17.370Z,12.76
2022-10-04T06:27:27.639Z,12.69
2022-10-04T06:33:03.330Z,12.66
2022-10-04T06:38:41.265Z,12.83
2022-10-04T06:43:59.058Z,12.95
2022-10-04T06:49:16.105Z,12.91
2022-10-04T06:54:31.425Z,13.00
2022-10-04T06:59:58.647Z,13.30
2022-10-04T07:05:14.131Z,13.47
2022-10-04T07:10:27.718Z,13.40
2022-10-04T07:15:34.181Z,13.35
2022-10-04T07:20:37.879Z,13.69
2022-10-04T07:25:45.984Z,13.66
2022-10-04T07:30:53.241Z,13.55
2022-10-04T07:36:07.316Z,13.73
2022-10-04T07:41:13.968Z,13.96
2022-10-04T07:46:24.059Z,13.93
2022-10-04T07:51:36.597Z,13.99
2022-10-04T07:56:47.254Z,13.87
2022-10-04T08:01:56.911Z,14.16
2022-10-04T08:07:02.467Z,14.05
2022-10-04T08:12:14.608Z,14.22
2022-10-04T08:17:28.375Z,15.07
2022-10-04T08:23:01.277Z,15.12
2022-10-04T08:28:14.674Z,14.70
2022-10-04T08:33:26.663Z,14.76
2022-10-04T08:38:42.086Z,14.46
2022-10-04T08:44:20.033Z,14.65
2022-10-04T08:49:46.598Z,14.66
2022-10-04T08:55:20.778Z,14.86
2022-10-04T09:00:31.717Z,14.89
2022-10-04T09:05:57.511Z,15.10
2022-10-04T09:11:19.772Z,15.22
2022-10-04T09:16:33.691Z,15.50
2022-10-04T09:21:50.347Z,15.75
2022-10-04T09:27:00.873Z,15.89
2022-10-04T09:32:36.068Z,15.62
2022-10-04T09:37:59.603Z,16.49
2022-10-04T09:43:41.752Z,18.38
2022-10-04T09:48:55.379Z,18.82
2022-10-04T09:54:20.066Z,18.33
2022-10-04T09:59:48.420Z,18.42
2022-10-04T10:05:08.735Z,20.15
2022-10-04T10:10:22.591Z,20.50
2022-10-04T10:15:33.850Z,22.02
2022-10-04T10:21:10.946Z,21.14
2022-10-04T10:26:33.380Z,19.78
2022-10-04T10:31:53.766Z,19.99
2022-10-04T10:37:07.971Z,19.95
2022-10-04T10:42:27.034Z,24.02
2022-10-04T10:47:44.334Z,22.07
2022-10-04T10:53:22.905Z,21.03
2022-10-04T10:59:05.755Z,18.98
2022-10-04T11:04:31.315Z,18.08
2022-10-04T11:09:53.097Z,17.90
2022-10-04T11:15:33.500Z,17.98
2022-10-04T11:21:00.217Z,18.37
2022-10-04T11:26:40.692Z,18.52
2022-10-04T11:32:15.925Z,18.90
2022-10-04T11:37:29.517Z,18.92
2022-10-04T11:42:51.683Z,20.23
2022-10-04T11:48:02.845Z,21.17
2022-10-04T11:53:28.163Z,20.43
2022-10-04T11:58:45.958Z,19.94
2022-10-04T12:04:27.237Z,20.35
2022-10-04T12:09:42.220Z,19.38
2022-10-04T12:15:01.918Z,19.10
2022-10-04T12:20:38.861Z,19.42
2022-10-04T12:25:54.721Z,19.57
2022-10-04T12:31:10.956Z,19.59
2022-10-04T12:36:28.070Z,19.71
2022-10-04T12:41:47.732Z,19.30
2022-10-04T12:47:01.657Z,19.59
2022-10-04T12:52:11.245Z,19.48
2022-10-04T12:57:40.936Z,19.39
2022-10-04T13:03:11.369Z,19.59
2022-10-04T13:08:25.532Z,19.43
2022-10-04T13:14:04.661Z,19.60
2022-10-04T13:19:16.926Z,19.54
2022-10-04T13:24:28.440Z,19.46
2022-10-04T13:29:37.865Z,19.58
2022-10-04T13:34:52.489Z,19.60
2022-10-04T13:40:25.495Z,19.80
2022-10-04T13:45:37.702Z,20.22
2022-10-04T13:50:58.577Z,19.75
2022-10-04T13:56:06.405Z,19.80
2022-10-04T14:01:41.439Z,19.16
2022-10-04T14:07:22.821Z,19.45
2022-10-04T14:13:09.408Z,19.01
2022-10-04T14:18:32.766Z,18.73
2022-10-04T14:24:19.633Z,18.42
2022-10-04T14:29:43.888Z,19.04
2022-10-04T14:35:00.089Z,19.35
2022-10-04T14:40:21.524Z,19.64
2022-10-04T14:45:38.640Z,19.26
2022-10-04T14:50:56.308Z,19.07
2022-10-04T14:56:16.973Z,19.15
2022-10-04T15:01:21.370Z,18.73
2022-10-04T15:06:35.002Z,18.50
2022-10-04T15:12:02.347Z,18.34
2022-10-04T15:17:10.966Z,18.10
2022-10-04T15:22:22.999Z,18.10
2022-10-04T15:27:49.160Z,17.74
2022-10-04T15:33:06.099Z,17.69
2022-10-04T15:38:23.539Z,17.52
2022-10-04T15:43:29.065Z,17.24
2022-10-04T15:48:49.816Z,16.96
2022-10-04T15:54:33.367Z,16.93
2022-10-04T15:59:46.053Z,16.79
2022-10-04T16:05:03.435Z,16.59
2022-10-04T16:10:19.388Z,16.29
2022-10-04T16:15:32.760Z,15.98
2022-10-04T16:21:04.376Z,15.66
2022-10-04T16:26:10.402Z,15.28
2022-10-04T16:31:41.447Z,14.95
2022-10-04T16:36:51.021Z,14.63
2022-10-04T16:42:00.005Z,14.48
2022-10-04T16:47:12.783Z,14.24
2022-10-04T16:52:37.623Z,13.94
2022-10-04T16:57:41.386Z,13.64
2022-10-04T17:03:12.192Z,13.44
2022-10-04T17:08:46.986Z,13.18
2022-10-04T17:13:56.891Z,12.98
2022-10-04T17:19:32.051Z,12.88
2022-10-04T17:24:46.433Z,12.72
2022-10-04T17:30:02.674Z,12.55
2022-10-04T17:35:16.883Z,12.46
2022-10-04T17:40:33.591Z,12.24
2022-10-04T17:45:52.555Z,12.01
2022-10-04T17:51:02.239Z,11.92
2022-10-04T17:56:06.943Z,11.80
2022-10-04T18:01:13.471Z,11.68
2022-10-04T18:06:25.528Z,11.68
2022-10-04T18:11:35.801Z,11.63
2022-10-04T18:16:50.073Z,11.69
2022-10-04T18:21:52.744Z,11.97
2022-10-04T18:26:58.705Z,12.13
2022-10-04T18:32:15.281Z,12.05
2022-10-04T18:37:21.277Z,12.08
2022-10-04T18:42:28.286Z,11.76
2022-10-04T18:47:36.428Z,11.80
2022-10-04T18:52:51.036Z,11.89
2022-10-04T18:58:02.883Z,11.89
2022-10-04T19:03:15.784Z,11.85
2022-10-04T19:08:31.407Z,11.78
2022-10-04T19:13:43.532Z,11.63
2022-10-04T19:18:58.561Z,11.44
2022-10-04T19:24:28.929Z,11.27
2022-10-04T19:29:44.295Z,11.15
2022-10-04T19:35:01.827Z,11.07
2022-10-04T19:40:09.531Z,11.05
2022-10-04T19:45:25.807Z,10.93
2022-10-04T19:50:36.116Z,10.82
2022-10-04T19:55:47.459Z,10.67
2022-10-04T20:00:50.275Z,10.54
2022-10-04T20:05:55.447Z,10.24
2022-10-04T20:11:14.372Z,10.13
2022-10-04T20:16:53.766Z,10.15
2022-10-04T20:22:27.001Z,10.09
2022-10-04T20:28:00.621Z,10.02
2022-10-04T20:33:02.396Z,9.97
2022-10-04T20:38:32.963Z,9.99
2022-10-04T20:43:53.845Z,10.27
2022-10-04T20:48:56.102Z,10.28
2022-10-04T20:54:00.422Z,10.41
2022-10-04T20:59:04.311Z,10.58
2022-10-04T21:04:13.829Z,10.57
2022-10-04T21:09:16.828Z,10.59
2022-10-04T21:14:23.651Z,10.70
2022-10-04T21:19:44.241Z,10.67
2022-10-04T21:24:55.714Z,10.60
2022-10-04T21:29:58.794Z,10.59
2022-10-04T21:35:00.897Z,10.56
2022-10-04T21:40:06.071Z,10.56
2022-10-04T21:45:08.345Z,10.61
2022-10-04T21:50:10.550Z,10.62
2022-10-04T21:55:14.228Z,10.54
2022-10-04T22:00:15.884Z,10.45
2022-10-04T22:05:18.101Z,10.29
2022-10-04T22:10:21.296Z,10.27
2022-10-04T22:15:25.562Z,10.16
2022-10-04T22:20:27.827Z,10.06
2022-10-04T22:25:31.353Z,9.93
2022-10-04T22:30:34.595Z,9.95
2022-10-04T22:35:36.500Z,9.85
2022-10-04T22:40:40.028Z,9.78
2022-10-04T22:45:43.279Z,9.65
2022-10-04T22:50:45.324Z,9.49
2022-10-04T22:55:49.932Z,9.34
2022-10-04T23:00:51.911Z,9.30
2022-10-04T23:05:54.103Z,9.28
2022-10-04T23:10:58.311Z,9.24
2022-10-04T23:16:07.115Z,9.20
2022-10-04T23:21:19.677Z,9.10
2022-10-04T23:26:25.617Z,9.08
2022-10-04T23:31:27.915Z,8.96
2022-10-04T23:36:30.888Z,8.82
2022-10-04T23:41:34.210Z,8.65
2022-10-04T23:46:36.295Z,8.52
2022-10-04T23:51:38.539Z,8.42
2022-10-04T23:56:43.295Z,8.41
